Time;durP1;ratioP1;P1;durP2;ratioP2;P2;SDS_P1;SDS_P2;PMS_P1;PMS_P2;Temp;Humidity;BMP_temperature;BMP_pressure;BME280_temperature;BME280_humidity;BME280_pressure;Samples;Min_cycle;Max_cycle;Signal;HPM_P1;HPM_P2
2023/02/27 00:00:45;;;;;;;;;6.25;6.25;;;;;4.98;41.69;101819.75;2080027;28;45580;-69
2023/02/27 00:01:46;;;;;;;;;4.00;4.00;;;;;4.95;42.03;101810.03;2080197;28;45865;-69
2023/02/27 00:02:49;;;;;;;;;5.75;3.75;;;;;4.95;41.71;101817.03;2080072;28;45459;-70
2023/02/27 00:03:49;;;;;;;;;6.40;6.40;;;;;4.94;41.74;101818.78;2079905;28;46096;-68
2023/02/27 00:04:50;;;;;;;;;5.00;5.00;;;;;4.94;41.88;101807.38;2079773;28;45755;-68
2023/02/27 00:05:51;;;;;;;;;7.00;7.00;;;;;4.93;42.21;101817.00;2071817;28;47080;-68
2023/02/27 00:06:51;;;;;;;;;6.75;6.75;;;;;4.94;41.80;101815.25;2077313;28;45806;-69
2023/02/27 00:07:51;;;;;;;;;9.00;8.50;;;;;4.94;41.92;101816.16;2077916;28;46517;-70
2023/02/27 00:08:52;;;;;;;;;7.50;7.50;;;;;4.93;42.32;101811.75;2079693;28;46829;-69
2023/02/27 00:09:52;;;;;;;;;6.00;6.00;;;;;4.94;42.48;101812.63;2075976;28;45072;-69
2023/02/27 00:10:52;;;;;;;;;8.00;4.50;;;;;4.93;42.15;101810.84;2079781;28;46719;-68
2023/02/27 00:11:53;;;;;;;;;3.00;3.00;;;;;4.91;42.15;101812.56;2072880;28;45968;-68
2023/02/27 00:12:53;;;;;;;;;6.25;5.50;;;;;4.90;42.26;101805.56;2078968;28;45231;-69
2023/02/27 00:13:53;;;;;;;;;4.00;4.00;;;;;4.90;42.15;101811.69;2093364;28;46171;-68
2023/02/27 00:14:54;;;;;;;;;6.75;6.75;;;;;4.90;42.48;101806.44;2088336;28;45610;-70
2023/02/27 00:15:55;;;;;;;;;4.00;4.00;;;;;4.89;42.28;101809.03;2075202;28;48038;-68
2023/02/27 00:16:55;;;;;;;;;7.40;7.40;;;;;4.90;42.11;101818.69;2072102;28;45984;-68
2023/02/27 00:17:55;;;;;;;;;7.00;7.00;;;;;4.88;42.19;101812.53;2079531;28;46880;-69
2023/02/27 00:18:59;;;;;;;;;7.00;7.00;;;;;4.86;42.01;101804.63;2080550;28;45822;-69
2023/02/27 00:20:00;;;;;;;;;12.00;11.20;;;;;4.86;42.43;101809.00;2080394;28;45751;-69
2023/02/27 00:21:00;;;;;;;;;6.50;5.00;;;;;4.86;42.19;101811.63;2096256;28;46839;-68
2023/02/27 00:22:00;;;;;;;;;9.50;9.50;;;;;4.85;42.47;101813.38;2096602;28;45865;-68
2023/02/27 00:23:01;;;;;;;;;7.00;7.00;;;;;4.84;42.67;101808.97;2080387;28;45582;-69
2023/02/27 00:24:01;;;;;;;;;8.25;8.25;;;;;4.84;42.40;101808.06;2080154;28;46170;-69
2023/02/27 00:25:02;;;;;;;;;7.00;4.50;;;;;4.84;42.70;101808.97;2080139;28;46816;-69
2023/02/27 00:26:03;;;;;;;;;6.40;3.00;;;;;4.84;42.89;101814.22;2077835;28;47154;-70
2023/02/27 00:27:03;;;;;;;;;15.75;13.25;;;;;4.85;42.97;101809.84;2073721;28;46553;-69
2023/02/27 00:28:03;;;;;;;;;8.00;6.00;;;;;4.84;42.77;101814.22;2080361;28;45491;-70
2023/02/27 00:29:05;;;;;;;;;6.75;5.75;;;;;4.85;42.43;101818.63;2080105;28;45776;-68
2023/02/27 00:30:08;;;;;;;;;8.60;8.60;;;;;4.85;42.64;101812.47;2076492;28;46695;-70
2023/02/27 00:31:08;;;;;;;;;9.00;8.60;;;;;4.86;42.57;101814.25;2071822;28;46485;-69
2023/02/27 00:32:09;;;;;;;;;6.25;6.25;;;;;4.86;42.85;101820.41;2091339;28;45958;-70
2023/02/27 00:33:09;;;;;;;;;7.25;6.25;;;;;4.86;42.58;101819.50;2095462;28;46466;-69
2023/02/27 00:34:09;;;;;;;;;8.75;6.75;;;;;4.86;42.70;101811.63;2079371;28;45321;-69
2023/02/27 00:35:11;;;;;;;;;7.75;7.50;;;;;4.87;42.83;101813.38;2079144;28;45540;-70
2023/02/27 00:36:11;;;;;;;;;6.00;6.00;;;;;4.86;42.75;101809.88;2087265;28;46330;-68
2023/02/27 00:37:12;;;;;;;;;7.00;7.00;;;;;4.86;42.64;101804.63;2087611;28;46681;-70
2023/02/27 00:38:12;;;;;;;;;6.25;6.00;;;;;4.87;42.87;101814.28;2087427;28;46352;-68
2023/02/27 00:39:14;;;;;;;;;3.75;3.75;;;;;4.86;42.70;101809.88;2087181;28;45970;-69
2023/02/27 00:40:15;;;;;;;;;3.00;3.00;;;;;4.86;42.58;101811.63;2073888;28;46064;-69
2023/02/27 00:41:15;;;;;;;;;6.75;6.25;;;;;4.85;43.00;101816.00;2079291;28;46020;-70
2023/02/27 00:42:15;;;;;;;;;7.25;6.25;;;;;4.85;42.67;101817.75;2094843;28;46649;-69
2023/02/27 00:43:15;;;;;;;;;3.00;3.00;;;;;4.84;42.63;101808.97;2090231;28;45854;-69
2023/02/27 00:44:16;;;;;;;;;3.00;3.00;;;;;4.85;42.81;101815.09;2087331;28;46472;-69
2023/02/27 00:45:17;;;;;;;;;6.00;6.00;;;;;4.85;43.18;101812.47;2087178;28;46018;-69
2023/02/27 00:46:18;;;;;;;;;6.00;6.00;;;;;4.84;43.12;101810.72;2078214;28;45923;-69
2023/02/27 00:47:18;;;;;;;;;4.40;4.40;;;;;4.84;42.75;101811.59;2078985;28;45981;-69
2023/02/27 00:48:19;;;;;;;;;4.00;4.00;;;;;4.84;42.91;101811.59;2078760;28;45431;-69
2023/02/27 00:49:19;;;;;;;;;8.00;7.75;;;;;4.85;42.69;101815.09;2079304;28;46093;-70
2023/02/27 00:50:20;;;;;;;;;7.00;7.00;;;;;4.85;42.90;101809.84;2093850;28;45859;-69
2023/02/27 00:51:21;;;;;;;;;5.00;4.00;;;;;4.84;43.00;101815.97;2093562;28;47118;-69
2023/02/27 00:52:21;;;;;;;;;6.00;6.00;;;;;4.85;43.18;101815.09;2087283;28;45996;-69
2023/02/27 00:53:23;;;;;;;;;5.00;5.00;;;;;4.83;42.81;101815.09;2087261;28;46312;-69
2023/02/27 00:54:23;;;;;;;;;8.40;7.60;;;;;4.82;43.11;101808.03;2087442;28;46685;-69
2023/02/27 00:55:24;;;;;;;;;6.50;5.50;;;;;4.82;42.84;101818.53;2087014;28;45845;-68
2023/02/27 00:56:24;;;;;;;;;4.00;4.00;;;;;4.82;42.96;101815.03;2087292;28;46044;-69
2023/02/27 00:57:24;;;;;;;;;7.25;7.25;;;;;4.79;43.42;101815.84;2078894;28;46538;-70
2023/02/27 00:58:25;;;;;;;;;6.50;6.50;;;;;4.79;43.03;101821.13;2078378;28;46829;-69
2023/02/27 00:59:25;;;;;;;;;6.50;6.50;;;;;4.78;43.18;101831.59;2087146;28;46682;-69
2023/02/27 01:00:26;;;;;;;;;6.25;6.25;;;;;4.76;43.09;101821.06;2087312;28;45898;-69
2023/02/27 01:01:26;;;;;;;;;6.00;6.00;;;;;4.75;42.91;101821.03;2087102;28;46249;-69
2023/02/27 01:02:27;;;;;;;;;6.00;6.00;;;;;4.74;43.29;101822.78;2087463;28;46073;-69
2023/02/27 01:03:27;;;;;;;;;6.25;6.25;;;;;4.73;43.31;101829.78;2092623;28;46613;-69
2023/02/27 01:04:28;;;;;;;;;7.50;6.25;;;;;4.73;43.47;101826.28;2086771;28;45474;-69
2023/02/27 01:05:28;;;;;;;;;5.00;5.00;;;;;4.73;43.11;101834.16;2083273;28;46036;-69
2023/02/27 01:06:29;;;;;;;;;7.00;6.00;;;;;4.72;43.49;101820.13;2074362;28;46661;-69
2023/02/27 01:07:30;;;;;;;;;7.00;7.00;;;;;4.71;43.04;101828.00;2077625;28;45840;-69
2023/02/27 01:08:30;;;;;;;;;7.20;7.20;;;;;4.70;43.39;101829.72;2071106;28;46632;-70
2023/02/27 01:09:30;;;;;;;;;7.00;7.00;;;;;4.70;43.19;101821.84;2073203;28;45870;-69
2023/02/27 01:10:31;;;;;;;;;7.00;6.00;;;;;4.70;43.20;101823.56;2079482;28;46400;-70
2023/02/27 01:11:31;;;;;;;;;4.00;4.00;;;;;4.70;43.73;101823.56;2080547;28;46206;-69
2023/02/27 01:12:32;;;;;;;;;6.00;3.75;;;;;4.69;43.28;101830.56;2081122;28;47327;-68
2023/02/27 01:13:32;;;;;;;;;6.00;6.00;;;;;4.69;43.77;101821.78;2073342;28;45916;-69
2023/02/27 01:14:32;;;;;;;;;7.50;6.00;;;;;4.68;43.54;101822.66;2075837;28;46133;-68
2023/02/27 01:15:33;;;;;;;;;6.00;5.00;;;;;4.66;43.90;101817.34;2081394;28;46090;-68
2023/02/27 01:16:33;;;;;;;;;3.00;3.00;;;;;4.65;43.76;101810.34;2075904;28;46184;-68
2023/02/27 01:17:34;;;;;;;;;6.00;6.00;;;;;4.66;43.13;101824.34;2073329;28;45629;-69
2023/02/27 01:18:34;;;;;;;;;5.50;5.50;;;;;4.64;43.82;101816.44;2081067;28;47119;-68
2023/02/27 01:19:34;;;;;;;;;5.00;5.00;;;;;4.65;43.35;101817.34;2077458;28;45885;-69
2023/02/27 01:20:35;;;;;;;;;6.75;6.75;;;;;4.64;43.94;101810.31;2072725;28;46838;-70
2023/02/27 01:21:35;;;;;;;;;4.00;4.00;;;;;4.64;43.40;101812.94;2096195;28;45531;-68
2023/02/27 01:22:35;;;;;;;;;6.25;6.25;;;;;4.62;43.79;101805.03;2097136;28;45642;-70
2023/02/27 01:23:36;;;;;;;;;3.25;3.25;;;;;4.60;43.93;101809.38;2089201;28;45322;-69
2023/02/27 01:24:36;;;;;;;;;8.00;7.75;;;;;4.59;43.26;101810.22;2083384;28;46283;-69
2023/02/27 01:25:37;;;;;;;;;5.50;5.50;;;;;4.58;43.92;101812.81;2081113;28;45764;-69
2023/02/27 01:26:37;;;;;;;;;5.25;3.75;;;;;4.58;43.80;101815.47;2074549;28;46690;-68
2023/02/27 01:27:38;;;;;;;;;5.00;5.00;;;;;4.57;43.59;101809.28;2076258;28;46815;-69
2023/02/27 01:28:38;;;;;;;;;7.50;7.50;;;;;4.56;43.95;101812.75;2080980;28;45587;-69
2023/02/27 01:29:39;;;;;;;;;13.00;6.25;;;;;4.56;43.62;101819.75;2080477;28;46231;-69
2023/02/27 01:30:40;;;;;;;;;7.60;7.20;;;;;4.55;43.72;101815.38;2080457;28;46897;-69
2023/02/27 01:31:41;;;;;;;;;6.25;6.25;;;;;4.53;44.44;101815.34;2081257;28;46484;-69
2023/02/27 01:32:41;;;;;;;;;7.50;6.25;;;;;4.53;44.24;101809.19;2091366;28;45131;-69
2023/02/27 01:33:42;;;;;;;;;9.75;8.25;;;;;4.52;44.18;101816.19;2088773;28;47279;-69
2023/02/27 01:34:42;;;;;;;;;7.50;6.00;;;;;4.50;44.28;101819.66;2073008;28;45559;-68
2023/02/27 01:35:42;;;;;;;;;6.00;4.25;;;;;4.48;44.13;101822.25;2076428;28;45945;-68
2023/02/27 01:36:43;;;;;;;;;7.50;6.75;;;;;4.50;43.80;101811.78;2080976;28;46441;-68
2023/02/27 01:37:43;;;;;;;;;4.00;4.00;;;;;4.48;44.43;101821.38;2081068;28;46599;-68
2023/02/27 01:38:43;;;;;;;;;5.50;5.50;;;;;4.47;44.34;101824.84;2081233;28;46926;-70
2023/02/27 01:39:44;;;;;;;;;8.00;6.50;;;;;4.47;44.25;101820.50;2080681;28;44970;-69
2023/02/27 01:40:44;;;;;;;;;7.00;7.00;;;;;4.47;44.12;101816.97;2080293;28;47306;-70
2023/02/27 01:41:45;;;;;;;;;7.25;7.25;;;;;4.46;44.38;101810.84;2079559;28;46068;-69
2023/02/27 01:42:46;;;;;;;;;8.00;8.00;;;;;4.47;44.30;101816.97;2079794;28;46356;-68
2023/02/27 01:44:05;;;;;;;;;10.25;8.50;;;;;4.45;44.23;101814.31;2079710;28;45638;-69
2023/02/27 01:45:11;;;;;;;;;6.80;6.80;;;;;4.43;44.16;101816.00;2079865;28;45215;-68
2023/02/27 01:46:11;;;;;;;;;4.00;4.00;;;;;4.42;44.14;101816.84;2079505;28;46735;-68
2023/02/27 01:47:12;;;;;;;;;8.75;8.75;;;;;4.42;44.24;101816.84;2080271;28;45410;-69
2023/02/27 01:48:17;;;;;;;;;6.75;6.75;;;;;4.41;44.83;101813.34;2079663;28;47458;-69
2023/02/27 01:49:22;;;;;;;;;6.60;4.20;;;;;4.40;44.56;101814.19;2079996;28;45905;-70
2023/02/27 01:50:24;;;;;;;;;5.20;5.20;;;;;4.40;44.21;101814.19;2077695;28;45615;-68
2023/02/27 01:51:29;;;;;;;;;7.00;6.00;;;;;4.40;44.28;101810.69;2080072;28;46745;-69
2023/02/27 01:52:31;;;;;;;;;7.00;5.00;;;;;4.40;43.80;101806.31;2071803;28;46030;-68
2023/02/27 01:53:34;;;;;;;;;7.40;7.00;;;;;4.38;44.61;101801.88;2071954;28;45735;-70
2023/02/27 01:54:39;;;;;;;;;6.40;6.40;;;;;4.37;44.56;101795.75;2077388;28;46276;-69
2023/02/27 01:55:40;;;;;;;;;7.40;7.40;;;;;4.38;44.39;101799.25;2079682;28;46617;-69
2023/02/27 01:56:41;;;;;;;;;7.00;7.00;;;;;4.37;44.65;101800.13;2080160;28;45959;-69
2023/02/27 01:57:44;;;;;;;;;4.00;4.00;;;;;4.35;44.49;101804.47;2080153;28;45346;-69
2023/02/27 01:58:48;;;;;;;;;6.60;6.60;;;;;4.34;45.02;101800.94;2079907;28;46870;-69
2023/02/27 01:59:49;;;;;;;;;6.20;6.20;;;;;4.34;44.67;101805.31;2071932;28;46073;-69
2023/02/27 02:00:50;;;;;;;;;7.60;7.00;;;;;4.33;44.62;101800.91;2075224;28;45612;-69
2023/02/27 02:01:51;;;;;;;;;7.00;7.00;;;;;4.33;45.04;101799.19;2080036;28;45908;-69
2023/02/27 02:03:39;;;;;;;;;7.00;7.00;;;;;4.33;45.01;101798.28;2079909;28;45084;-69
2023/02/27 02:04:40;;;;;;;;;5.00;5.00;;;;;4.33;45.15;101795.66;2055208;28;46984;-68
2023/02/27 02:05:43;;;;;;;;;5.20;5.20;;;;;4.34;45.06;101800.06;2062745;28;46174;-69
2023/02/27 02:07:01;;;;;;;;;7.60;6.00;;;;;4.34;44.70;101782.56;2071701;28;46800;-69
2023/02/27 02:08:03;;;;;;;;;8.00;8.00;;;;;4.34;44.68;101787.81;2063159;28;45874;-69
2023/02/27 02:09:05;;;;;;;;;6.00;6.00;;;;;4.35;44.58;101792.22;2063370;28;45782;-69
2023/02/27 02:10:06;;;;;;;;;8.80;7.60;;;;;4.35;44.72;101786.94;2071855;28;46757;-69
2023/02/27 02:11:08;;;;;;;;;6.40;6.20;;;;;4.35;44.99;101781.69;2063725;28;45738;-69
2023/02/27 02:12:12;;;;;;;;;5.40;4.80;;;;;4.34;44.97;101786.91;2063697;28;46778;-69
2023/02/27 02:13:13;;;;;;;;;7.00;7.00;;;;;4.34;44.78;101784.28;2067309;28;46952;-69
2023/02/27 02:14:14;;;;;;;;;7.40;7.40;;;;;4.35;45.15;101778.19;2063953;28;46623;-69
2023/02/27 02:15:15;;;;;;;;;7.00;7.00;;;;;4.35;45.03;101780.81;2063710;28;45901;-69
2023/02/27 02:16:40;;;;;;;;;6.20;6.00;;;;;4.34;44.93;101774.66;2063356;28;46670;-69
2023/02/27 02:17:56;;;;;;;;;7.60;6.20;;;;;4.34;44.81;101785.19;2063722;28;46221;-68
2023/02/27 02:19:08;;;;;;;;;6.80;6.00;;;;;4.35;44.97;101786.94;2063770;28;45860;-69
2023/02/27 02:20:27;;;;;;;;;7.00;6.80;;;;;4.35;44.81;101780.81;2063869;28;46157;-68
2023/02/27 02:21:48;;;;;;;;;4.80;4.80;;;;;4.35;44.99;101775.56;2055247;28;45818;-69
2023/02/27 02:23:13;;;;;;;;;7.40;7.40;;;;;4.34;44.93;101782.56;2061493;28;45359;-70
2023/02/27 02:24:37;;;;;;;;;4.20;3.40;;;;;4.33;44.74;101785.16;2063353;28;46031;-69
2023/02/27 02:26:11;;;;;;;;;5.40;5.00;;;;;4.32;44.80;101780.72;2063649;28;45772;-70
2023/02/27 02:27:42;;;;;;;;;5.40;5.40;;;;;4.30;45.07;101779.81;2063314;28;46555;-69
2023/02/27 02:28:57;;;;;;;;;6.00;6.00;;;;;4.29;45.08;101773.66;2062883;28;46490;-68
2023/02/27 02:30:06;;;;;;;;;7.40;7.40;;;;;4.28;44.97;101779.78;2063163;28;45689;-69
2023/02/27 02:31:44;;;;;;;;;8.20;7.40;;;;;4.29;45.11;101772.78;2063599;28;46289;-70
2023/02/27 02:33:16;;;;;;;;;6.40;6.40;;;;;4.24;45.13;101770.06;2055504;28;47032;-69
2023/02/27 02:34:31;;;;;;;;;6.60;5.80;;;;;4.24;45.33;101777.94;2047629;28;45775;-69
2023/02/27 02:35:50;;;;;;;;;8.60;6.60;;;;;4.22;44.95;101777.03;2052544;28;45233;-69
2023/02/27 02:37:00;;;;;;;;;5.80;5.80;;;;;4.21;45.01;101775.28;2055758;28;45652;-70
2023/02/27 02:38:18;;;;;;;;;7.40;6.00;;;;;4.21;45.33;101775.28;2055317;28;45342;-69
2023/02/27 02:39:31;;;;;;;;;5.00;5.00;;;;;4.20;45.46;101778.75;2054929;28;46683;-69
2023/02/27 02:40:37;;;;;;;;;6.00;6.00;;;;;4.20;45.04;101776.13;2055120;28;46232;-69
2023/02/27 02:42:18;;;;;;;;;4.40;4.40;;;;;4.21;45.26;101769.13;2057179;28;46305;-70
2023/02/27 02:43:25;;;;;;;;;6.00;6.00;;;;;4.20;45.35;101772.63;2061320;28;46151;-69
2023/02/27 02:44:41;;;;;;;;;7.00;6.00;;;;;4.20;45.32;101775.25;2054807;28;46601;-70
2023/02/27 02:45:54;;;;;;;;;7.20;5.00;;;;;4.18;45.35;101775.19;2055247;28;46823;-69
2023/02/27 02:47:55;;;;;;;;;6.40;6.40;;;;;4.19;45.23;101776.06;2054941;28;45771;-69
2023/02/27 02:49:10;;;;;;;;;4.20;4.20;;;;;4.18;45.23;101772.53;2048094;28;45773;-69
2023/02/27 02:50:25;;;;;;;;;8.40;6.00;;;;;4.18;45.31;101776.91;2047247;28;45915;-69
2023/02/27 02:51:43;;;;;;;;;6.60;6.00;;;;;4.18;45.11;101776.91;2046770;28;46104;-69
2023/02/27 02:53:11;;;;;;;;;6.40;6.40;;;;;4.17;45.61;101773.41;2046854;28;46704;-69
2023/02/27 02:54:19;;;;;;;;;7.00;6.60;;;;;4.18;45.50;101776.91;2047369;28;45677;-69
2023/02/27 02:55:45;;;;;;;;;7.20;4.80;;;;;4.16;45.57;101779.53;2046902;28;45882;-70
2023/02/27 02:56:54;;;;;;;;;6.00;6.00;;;;;4.16;45.35;101778.63;2047486;28;45637;-69
2023/02/27 02:58:05;;;;;;;;;5.80;5.20;;;;;4.16;45.72;101776.00;2047458;28;46160;-69
2023/02/27 02:59:15;;;;;;;;;7.00;5.80;;;;;4.15;45.40;101785.63;2047613;28;46064;-69
2023/02/27 03:00:20;;;;;;;;;4.20;4.20;;;;;4.14;45.68;101773.34;2047226;28;45291;-69
2023/02/27 03:01:30;;;;;;;;;6.00;6.00;;;;;4.16;45.78;101781.25;2047420;28;46298;-69
2023/02/27 03:02:37;;;;;;;;;7.00;7.00;;;;;4.16;45.68;101782.16;2047651;28;46414;-68
2023/02/27 03:03:44;;;;;;;;;6.60;5.60;;;;;4.16;45.30;101781.25;2046978;28;46740;-69
2023/02/27 03:04:58;;;;;;;;;5.40;5.40;;;;;4.18;45.25;101780.44;2046926;28;47750;-69
2023/02/27 03:06:25;;;;;;;;;7.00;7.00;;;;;4.17;45.13;101775.16;2039517;28;45824;-69
2023/02/27 03:07:41;;;;;;;;;6.00;6.00;;;;;4.19;45.60;101784.81;2026912;29;46122;-69
2023/02/27 03:08:53;;;;;;;;;5.60;5.60;;;;;4.20;45.39;101777.88;2031553;29;46170;-69
2023/02/27 03:10:16;;;;;;;;;4.80;4.80;;;;;4.20;45.32;101777.88;2034444;28;45337;-69
2023/02/27 03:11:17;;;;;;;;;6.40;6.00;;;;;4.20;45.40;101777.88;2047379;28;45764;-70
2023/02/27 03:12:22;;;;;;;;;6.00;6.00;;;;;4.19;45.18;101774.31;2047289;28;47124;-69
2023/02/27 03:13:51;;;;;;;;;3.00;3.00;;;;;4.19;45.37;101776.06;2046912;28;45714;-69
2023/02/27 03:14:56;;;;;;;;;5.00;5.00;;;;;4.18;45.20;101775.19;2046927;28;47842;-69
2023/02/27 03:16:05;;;;;;;;;6.00;6.00;;;;;4.18;45.51;101775.19;2046760;28;46713;-69
2023/02/27 03:17:13;;;;;;;;;3.20;3.20;;;;;4.17;45.20;101777.78;2047003;28;45775;-69
2023/02/27 03:18:19;;;;;;;;;6.60;6.60;;;;;4.17;45.53;101776.03;2047000;28;46839;-68
2023/02/27 03:19:28;;;;;;;;;5.60;5.60;;;;;4.17;45.29;101780.41;2046810;28;45666;-69
2023/02/27 03:20:41;;;;;;;;;3.00;1.40;;;;;4.13;45.32;101772.47;2045667;28;46948;-69
2023/02/27 03:21:50;;;;;;;;;4.80;4.80;;;;;4.14;45.57;101778.59;2046448;28;47197;-69
2023/02/27 03:22:55;;;;;;;;;7.60;6.60;;;;;4.13;45.18;101780.34;2046854;28;46653;-69
2023/02/27 03:24:01;;;;;;;;;6.00;6.00;;;;;4.12;45.19;101770.69;2059436;28;45812;-69
2023/02/27 03:25:05;;;;;;;;;5.60;4.80;;;;;4.13;45.47;101779.47;2066079;28;46784;-69
2023/02/27 03:26:07;;;;;;;;;4.80;4.80;;;;;4.12;45.34;101770.69;2069071;28;47343;-70
2023/02/27 03:27:08;;;;;;;;;6.00;6.00;;;;;4.11;45.34;101770.66;2062632;28;46303;-69
2023/02/27 03:28:16;;;;;;;;;5.20;4.80;;;;;4.10;45.25;101777.66;2068914;28;46026;-69
2023/02/27 03:29:28;;;;;;;;;5.80;5.80;;;;;4.10;45.20;101777.66;2071274;28;45578;-68
2023/02/27 03:30:45;;;;;;;;;5.80;5.80;;;;;4.10;45.26;101772.41;2070946;28;46720;-69
2023/02/27 03:31:53;;;;;;;;;4.20;3.00;;;;;4.10;45.21;101769.78;2070497;28;46250;-68
2023/02/27 03:33:05;;;;;;;;;6.60;6.60;;;;;4.09;44.97;101773.25;2070914;28;46367;-69
2023/02/27 03:34:20;;;;;;;;;5.20;5.20;;;;;4.09;45.04;101781.16;2070665;28;45330;-69
2023/02/27 03:35:23;;;;;;;;;5.20;5.20;;;;;4.07;45.00;101779.34;2071182;28;46253;-68
2023/02/27 03:36:37;;;;;;;;;3.00;3.00;;;;;4.07;45.21;101774.09;2071047;28;46787;-69
2023/02/27 03:38:07;;;;;;;;;4.20;4.20;;;;;4.06;45.27;101778.44;2071042;28;47515;-69
2023/02/27 03:39:41;;;;;;;;;4.80;4.80;;;;;4.07;45.00;101779.34;2071055;28;47814;-68
2023/02/27 03:41:23;;;;;;;;;5.40;5.40;;;;;4.06;45.04;101783.69;2071204;28;45933;-68
2023/02/27 03:42:37;;;;;;;;;5.40;5.00;;;;;4.06;45.55;101788.94;2072948;28;46901;-68
2023/02/27 03:43:52;;;;;;;;;9.20;7.20;;;;;4.06;45.25;101782.78;2062789;28;46330;-69
2023/02/27 03:45:25;;;;;;;;;3.80;3.40;;;;;4.04;45.59;101781.88;2070618;28;46043;-69
2023/02/27 03:46:26;;;;;;;;;5.00;4.80;;;;;4.03;45.23;101782.72;2078005;28;47262;-68
2023/02/27 03:47:28;;;;;;;;;2.60;2.60;;;;;4.03;45.65;101781.00;2080146;28;45870;-69
2023/02/27 03:48:29;;;;;;;;;6.60;6.60;;;;;4.02;45.43;101781.84;2080127;28;46586;-68
2023/02/27 03:49:29;;;;;;;;;5.80;5.80;;;;;4.02;45.40;101787.09;2080216;28;46724;-69
2023/02/27 03:50:30;;;;;;;;;6.00;6.00;;;;;4.02;45.43;101786.22;2079850;28;46498;-69
2023/02/27 03:51:31;;;;;;;;;4.50;4.50;;;;;4.01;45.35;101782.69;2080080;28;46733;-69
2023/02/27 03:52:32;;;;;;;;;6.60;6.60;;;;;4.01;45.54;101785.31;2073407;28;47330;-69
2023/02/27 03:53:39;;;;;;;;;3.25;2.00;;;;;4.01;45.18;101785.31;2080012;28;46391;-69
2023/02/27 03:54:49;;;;;;;;;3.60;3.60;;;;;4.02;45.09;101786.22;2080381;28;46170;-69
2023/02/27 03:55:50;;;;;;;;;4.40;4.00;;;;;4.01;45.34;101785.31;2079375;28;46483;-68
2023/02/27 03:57:10;;;;;;;;;4.20;4.20;;;;;4.01;45.60;101781.81;2079911;28;46016;-69
2023/02/27 03:58:11;;;;;;;;;5.20;5.20;;;;;4.02;45.83;101788.84;2079011;28;46292;-69
2023/02/27 03:59:12;;;;;;;;;6.50;5.75;;;;;4.02;45.47;101786.22;2082103;28;45991;-69
2023/02/27 04:00:17;;;;;;;;;6.00;4.80;;;;;4.01;45.58;101779.19;2084740;28;46877;-69
2023/02/27 04:01:18;;;;;;;;;3.20;3.20;;;;;4.02;45.75;101784.47;2079571;28;46137;-70
2023/02/27 04:02:19;;;;;;;;;5.75;5.75;;;;;4.02;45.54;101792.34;2079469;28;45811;-70
2023/02/27 04:03:20;;;;;;;;;7.80;6.00;;;;;4.02;45.42;101788.84;2079863;28;45894;-69
2023/02/27 04:04:21;;;;;;;;;4.25;4.25;;;;;4.02;45.58;101791.47;2080011;28;46270;-70
2023/02/27 04:05:22;;;;;;;;;7.80;6.60;;;;;4.02;45.28;101786.22;2080185;28;45772;-68
2023/02/27 04:08:20;;;;;;;;;7.20;6.00;;;;;4.01;45.75;101785.31;2079782;28;45172;-70
2023/02/27 04:09:57;;;;;;;;;7.80;6.40;;;;;4.00;45.55;101785.31;2080107;28;46415;-69
2023/02/27 04:11:33;;;;;;;;;3.40;3.40;;;;;4.00;45.58;101791.44;2079019;28;45582;-69
2023/02/27 04:13:10;;;;;;;;;5.00;5.00;;;;;3.99;45.58;101788.78;2070910;28;45640;-69
2023/02/27 04:14:11;;;;;;;;;3.00;3.00;;;;;3.98;45.58;101785.28;2071087;28;46173;-68
2023/02/27 04:15:31;;;;;;;;;7.75;6.75;;;;;3.96;45.71;101789.59;2076281;28;45420;-69
2023/02/27 04:16:56;;;;;;;;;4.80;4.80;;;;;3.95;45.39;101790.47;2079054;28;47184;-69
2023/02/27 04:18:29;;;;;;;;;4.20;4.20;;;;;3.93;45.37;101797.38;2078779;28;45613;-68
2023/02/27 04:19:48;;;;;;;;;5.20;4.80;;;;;3.91;45.63;101796.47;2079278;28;46488;-70
2023/02/27 04:20:53;;;;;;;;;3.00;3.00;;;;;3.90;45.97;101793.81;2074427;28;46738;-68
2023/02/27 04:22:26;;;;;;;;;5.40;5.40;;;;;3.88;46.15;101788.53;2079265;28;45756;-69
2023/02/27 04:23:36;;;;;;;;;9.60;6.80;;;;;3.87;45.90;101794.63;2079061;28;45761;-69
2023/02/27 04:24:47;;;;;;;;;6.60;5.80;;;;;3.88;45.63;101795.53;2079437;28;45789;-69
2023/02/27 04:26:14;;;;;;;;;4.20;4.20;;;;;3.86;45.66;101795.50;2078946;28;46261;-69
2023/02/27 04:27:43;;;;;;;;;7.00;7.00;;;;;3.85;45.88;101785.84;2077234;28;45939;-69
2023/02/27 04:28:56;;;;;;;;;6.00;6.00;;;;;3.86;46.17;101792.88;2078717;28;46821;-69
2023/02/27 04:30:21;;;;;;;;;5.60;4.00;;;;;3.84;46.16;101792.84;2079062;28;46178;-68
2023/02/27 04:31:27;;;;;;;;;4.80;4.60;;;;;3.82;46.09;101791.03;2075240;28;45698;-68
2023/02/27 04:32:51;;;;;;;;;6.20;6.20;;;;;3.82;45.79;101802.44;2078772;28;45494;-69
2023/02/27 04:34:13;;;;;;;;;4.60;4.60;;;;;3.81;46.19;101803.28;2084541;28;46632;-69
2023/02/27 04:35:22;;;;;;;;;5.00;3.00;;;;;3.82;46.17;101801.53;2071121;28;45869;-69
2023/02/27 04:36:31;;;;;;;;;6.20;6.20;;;;;3.82;46.15;101801.53;2078844;28;47975;-69
2023/02/27 04:37:45;;;;;;;;;6.40;6.40;;;;;3.81;46.18;101803.28;2079025;28;47010;-69
2023/02/27 04:38:53;;;;;;;;;6.40;5.40;;;;;3.82;46.09;101797.19;2086903;28;46784;-69
2023/02/27 04:40:01;;;;;;;;;6.60;6.60;;;;;3.82;46.18;101805.06;2079663;28;45181;-69
2023/02/27 04:41:27;;;;;;;;;5.40;3.00;;;;;3.81;46.26;101805.91;2079006;28;45401;-69
2023/02/27 04:42:39;;;;;;;;;6.40;6.40;;;;;3.80;46.01;101809.34;2079915;28;45583;-68
2023/02/27 04:43:41;;;;;;;;;2.80;2.80;;;;;3.81;45.81;101812.88;2070636;28;47361;-69
2023/02/27 04:44:45;;;;;;;;;4.60;4.20;;;;;3.80;46.04;101814.59;2074121;28;46343;-69
2023/02/27 04:45:48;;;;;;;;;5.00;5.00;;;;;3.79;45.97;101815.47;2079157;28;45713;-69
2023/02/27 04:46:52;;;;;;;;;6.00;4.80;;;;;3.78;46.02;101821.56;2079743;28;45662;-68
2023/02/27 04:48:13;;;;;;;;;4.60;4.60;;;;;3.79;46.11;101823.34;2080114;28;45149;-69
2023/02/27 04:49:17;;;;;;;;;3.80;3.80;;;;;3.78;46.39;101824.19;2080941;28;45789;-69
2023/02/27 04:50:25;;;;;;;;;5.80;5.80;;;;;3.78;45.80;101821.56;2081001;28;45855;-68
2023/02/27 04:51:50;;;;;;;;;6.80;6.80;;;;;3.77;46.24;101830.28;2079706;28;46609;-69
2023/02/27 04:53:00;;;;;;;;;6.00;5.60;;;;;3.76;46.03;101828.53;2071283;28;47048;-69
2023/02/27 04:54:16;;;;;;;;;5.20;4.80;;;;;3.77;46.40;101830.28;2071934;28;46536;-69
2023/02/27 04:55:23;;;;;;;;;6.00;4.80;;;;;3.78;46.59;101829.44;2071871;28;46176;-68
2023/02/27 04:56:43;;;;;;;;;7.60;7.60;;;;;3.77;46.26;101832.03;2063761;28;45538;-69
2023/02/27 04:58:06;;;;;;;;;5.80;5.80;;;;;3.76;46.16;101831.16;2066487;28;46029;-69
2023/02/27 04:59:13;;;;;;;;;10.00;6.40;;;;;3.75;46.58;101826.75;2071696;28;45880;-68
2023/02/27 05:00:17;;;;;;;;;5.60;5.60;;;;;3.76;46.34;101825.00;2068956;28;46113;-69
2023/02/27 05:01:45;;;;;;;;;4.80;4.80;;;;;3.75;46.29;101829.38;2065164;28;46311;-69
2023/02/27 05:02:55;;;;;;;;;5.80;5.60;;;;;3.75;46.49;101823.22;2063845;28;45721;-69
2023/02/27 05:03:57;;;;;;;;;5.00;5.00;;;;;3.76;46.23;101820.66;2063844;28;46561;-69
2023/02/27 05:05:01;;;;;;;;;5.80;5.00;;;;;3.76;46.53;101819.75;2063607;28;45976;-69
2023/02/27 05:06:02;;;;;;;;;7.80;6.40;;;;;3.76;46.73;101825.91;2063888;28;45379;-69
2023/02/27 05:07:06;;;;;;;;;5.00;5.00;;;;;3.77;46.59;101816.28;2063906;28;45803;-70
2023/02/27 05:08:18;;;;;;;;;4.60;4.60;;;;;3.76;46.31;101823.28;2063672;28;46959;-68
2023/02/27 05:09:35;;;;;;;;;8.40;8.40;;;;;3.74;46.44;101814.47;2063940;28;45320;-69
2023/02/27 05:10:42;;;;;;;;;7.00;6.20;;;;;3.73;46.64;101823.19;2063663;28;45774;-68
2023/02/27 05:11:49;;;;;;;;;6.00;6.00;;;;;3.73;46.51;101823.19;2063253;28;46356;-68
2023/02/27 05:12:56;;;;;;;;;6.20;6.00;;;;;3.72;46.76;101826.69;2063881;28;46655;-69
2023/02/27 05:14:37;;;;;;;;;6.40;6.40;;;;;3.72;46.54;101831.06;2063842;28;45500;-70
2023/02/27 05:15:44;;;;;;;;;5.80;5.80;;;;;3.71;46.67;101827.53;2050183;28;46814;-69
2023/02/27 05:17:16;;;;;;;;;6.80;6.80;;;;;3.72;46.69;101829.31;2048955;28;46796;-69
2023/02/27 05:18:20;;;;;;;;;8.00;7.20;;;;;3.71;46.79;101832.78;2055317;28;45882;-69
2023/02/27 05:19:21;;;;;;;;;7.20;7.20;;;;;3.71;46.92;101827.53;2055668;28;46621;-69
2023/02/27 05:20:25;;;;;;;;;8.80;7.00;;;;;3.73;46.98;101835.44;2055540;28;45637;-68
2023/02/27 05:21:42;;;;;;;;;7.40;7.20;;;;;3.73;46.80;101828.47;2055435;28;46263;-68
2023/02/27 05:22:55;;;;;;;;;5.20;5.20;;;;;3.72;47.09;101831.94;2055941;28;46068;-69